sensor_id;sensor_type;location;lat;lon;timestamp;P1;durP1;ratioP1;P2;durP2;ratioP2
75496;SDS011;64074;47.540;19.072;2023-01-01T00:01:35;140.27;;;62.47;;
75496;SDS011;64074;47.540;19.072;2023-01-01T00:04:51;119.53;;;51.40;;
75496;SDS011;64074;47.540;19.072;2023-01-01T00:07:55;119.47;;;51.13;;
75496;SDS011;64074;47.540;19.072;2023-01-01T00:11:12;124.50;;;54.00;;
75496;SDS011;64074;47.540;19.072;2023-01-01T00:14:41;134.55;;;54.67;;
75496;SDS011;64074;47.540;19.072;2023-01-01T00:18:18;136.10;;;58.47;;
75496;SDS011;64074;47.540;19.072;2023-01-01T00:21:42;133.23;;;56.80;;
75496;SDS011;64074;47.540;19.072;2023-01-01T00:25:04;133.40;;;57.70;;
75496;SDS011;64074;47.540;19.072;2023-01-01T00:28:27;126.93;;;56.70;;
75496;SDS011;64074;47.540;19.072;2023-01-01T00:31:48;131.00;;;58.88;;
75496;SDS011;64074;47.540;19.072;2023-01-01T00:35:18;138.90;;;59.38;;
75496;SDS011;64074;47.540;19.072;2023-01-01T00:38:35;142.20;;;63.17;;
75496;SDS011;64074;47.540;19.072;2023-01-01T00:41:56;150.70;;;67.27;;
75496;SDS011;64074;47.540;19.072;2023-01-01T00:45:18;170.55;;;73.53;;
75496;SDS011;64074;47.540;19.072;2023-01-01T00:48:42;173.63;;;77.13;;
75496;SDS011;64074;47.540;19.072;2023-01-01T00:52:03;180.10;;;82.65;;
75496;SDS011;64074;47.540;19.072;2023-01-01T00:55:23;198.53;;;89.67;;
75496;SDS011;64074;47.540;19.072;2023-01-01T00:58:50;203.60;;;85.53;;
75496;SDS011;64074;47.540;19.072;2023-01-01T01:02:10;197.75;;;85.95;;
75496;SDS011;64074;47.540;19.072;2023-01-01T01:05:27;193.23;;;87.70;;
75496;SDS011;64074;47.540;19.072;2023-01-01T01:08:47;186.60;;;79.53;;
75496;SDS011;64074;47.540;19.072;2023-01-01T01:12:01;188.80;;;79.17;;
75496;SDS011;64074;47.540;19.072;2023-01-01T01:15:20;266.53;;;86.43;;
75496;SDS011;64074;47.540;19.072;2023-01-01T01:18:27;183.70;;;75.88;;
75496;SDS011;64074;47.540;19.072;2023-01-01T01:21:36;179.80;;;72.05;;
75496;SDS011;64074;47.540;19.072;2023-01-01T01:24:58;170.07;;;66.72;;
75496;SDS011;64074;47.540;19.072;2023-01-01T01:28:26;174.50;;;66.40;;
75496;SDS011;64074;47.540;19.072;2023-01-01T01:31:44;160.50;;;62.50;;
75496;SDS011;64074;47.540;19.072;2023-01-01T01:34:53;174.65;;;63.90;;
75496;SDS011;64074;47.540;19.072;2023-01-01T01:38:27;149.63;;;60.42;;
75496;SDS011;64074;47.540;19.072;2023-01-01T01:41:37;150.82;;;60.63;;
75496;SDS011;64074;47.540;19.072;2023-01-01T01:45:05;194.60;;;70.33;;
75496;SDS011;64074;47.540;19.072;2023-01-01T01:48:09;181.00;;;66.80;;
75496;SDS011;64074;47.540;19.072;2023-01-01T01:51:22;186.15;;;66.88;;
75496;SDS011;64074;47.540;19.072;2023-01-01T01:54:42;152.38;;;64.07;;
75496;SDS011;64074;47.540;19.072;2023-01-01T01:57:50;148.35;;;60.10;;
75496;SDS011;64074;47.540;19.072;2023-01-01T02:00:54;145.47;;;60.50;;
75496;SDS011;64074;47.540;19.072;2023-01-01T02:04:02;168.73;;;62.63;;
75496;SDS011;64074;47.540;19.072;2023-01-01T02:07:12;161.45;;;64.22;;
75496;SDS011;64074;47.540;19.072;2023-01-01T02:10:35;152.88;;;61.97;;
75496;SDS011;64074;47.540;19.072;2023-01-01T02:13:54;140.43;;;58.40;;
75496;SDS011;64074;47.540;19.072;2023-01-01T02:17:15;148.47;;;62.00;;
75496;SDS011;64074;47.540;19.072;2023-01-01T02:27:42;165.60;;;59.78;;
75496;SDS011;64074;47.540;19.072;2023-01-01T02:30:49;140.00;;;55.60;;
75496;SDS011;64074;47.540;19.072;2023-01-01T02:33:55;174.97;;;61.53;;
75496;SDS011;64074;47.540;19.072;2023-01-01T02:37:11;174.87;;;60.83;;
75496;SDS011;64074;47.540;19.072;2023-01-01T02:40:50;145.40;;;58.55;;
75496;SDS011;64074;47.540;19.072;2023-01-01T02:44:14;175.93;;;58.83;;
75496;SDS011;64074;47.540;19.072;2023-01-01T02:47:38;180.60;;;58.53;;
75496;SDS011;64074;47.540;19.072;2023-01-01T02:50:59;139.60;;;56.27;;
75496;SDS011;64074;47.540;19.072;2023-01-01T02:55:12;140.57;;;57.80;;
75496;SDS011;64074;47.540;19.072;2023-01-01T02:58:19;152.55;;;56.40;;
75496;SDS011;64074;47.540;19.072;2023-01-01T03:02:24;139.23;;;54.50;;
75496;SDS011;64074;47.540;19.072;2023-01-01T03:12:59;129.10;;;55.37;;
75496;SDS011;64074;47.540;19.072;2023-01-01T03:16:50;138.75;;;56.35;;
75496;SDS011;64074;47.540;19.072;2023-01-01T03:20:07;145.60;;;57.45;;
75496;SDS011;64074;47.540;19.072;2023-01-01T03:23:17;137.50;;;56.35;;
75496;SDS011;64074;47.540;19.072;2023-01-01T03:26:27;134.60;;;54.30;;
75496;SDS011;64074;47.540;19.072;2023-01-01T03:29:41;144.60;;;57.13;;
75496;SDS011;64074;47.540;19.072;2023-01-01T03:32:57;149.50;;;54.58;;
75496;SDS011;64074;47.540;19.072;2023-01-01T03:36:31;146.93;;;53.10;;
75496;SDS011;64074;47.540;19.072;2023-01-01T03:39:57;120.95;;;51.03;;
75496;SDS011;64074;47.540;19.072;2023-01-01T03:43:10;147.37;;;51.60;;
75496;SDS011;64074;47.540;19.072;2023-01-01T03:46:40;127.90;;;51.50;;
75496;SDS011;64074;47.540;19.072;2023-01-01T03:49:58;159.73;;;53.42;;
75496;SDS011;64074;47.540;19.072;2023-01-01T03:53:07;166.95;;;55.13;;
75496;SDS011;64074;47.540;19.072;2023-01-01T03:56:33;153.63;;;55.00;;
75496;SDS011;64074;47.540;19.072;2023-01-01T03:59:46;143.07;;;50.03;;
75496;SDS011;64074;47.540;19.072;2023-01-01T04:03:24;125.63;;;49.73;;
75496;SDS011;64074;47.540;19.072;2023-01-01T04:06:43;133.60;;;49.63;;
75496;SDS011;64074;47.540;19.072;2023-01-01T04:14:28;113.28;;;49.00;;
75496;SDS011;64074;47.540;19.072;2023-01-01T04:18:07;152.80;;;51.93;;
75496;SDS011;64074;47.540;19.072;2023-01-01T04:21:18;121.43;;;49.60;;
75496;SDS011;64074;47.540;19.072;2023-01-01T04:24:32;119.68;;;50.45;;
75496;SDS011;64074;47.540;19.072;2023-01-01T04:27:49;117.43;;;48.85;;
75496;SDS011;64074;47.540;19.072;2023-01-01T04:31:21;129.65;;;50.17;;
75496;SDS011;64074;47.540;19.072;2023-01-01T04:34:43;142.07;;;52.27;;
75496;SDS011;64074;47.540;19.072;2023-01-01T04:38:12;141.90;;;50.90;;
75496;SDS011;64074;47.540;19.072;2023-01-01T04:41:23;134.95;;;49.75;;
75496;SDS011;64074;47.540;19.072;2023-01-01T04:44:28;136.68;;;49.90;;
75496;SDS011;64074;47.540;19.072;2023-01-01T04:47:39;124.80;;;50.95;;
75496;SDS011;64074;47.540;19.072;2023-01-01T04:51:12;131.17;;;48.20;;
75496;SDS011;64074;47.540;19.072;2023-01-01T04:54:53;112.60;;;45.60;;
75496;SDS011;64074;47.540;19.072;2023-01-01T04:58:24;125.40;;;46.85;;
75496;SDS011;64074;47.540;19.072;2023-01-01T05:01:47;110.57;;;46.85;;
75496;SDS011;64074;47.540;19.072;2023-01-01T05:04:58;134.85;;;47.40;;
75496;SDS011;64074;47.540;19.072;2023-01-01T05:08:03;122.50;;;46.60;;
75496;SDS011;64074;47.540;19.072;2023-01-01T05:11:14;115.30;;;47.33;;
75496;SDS011;64074;47.540;19.072;2023-01-01T05:14:31;126.07;;;48.38;;
75496;SDS011;64074;47.540;19.072;2023-01-01T05:17:48;136.00;;;47.97;;
75496;SDS011;64074;47.540;19.072;2023-01-01T05:21:13;143.95;;;47.63;;
75496;SDS011;64074;47.540;19.072;2023-01-01T05:24:48;144.03;;;48.20;;
75496;SDS011;64074;47.540;19.072;2023-01-01T05:27:57;119.50;;;45.77;;
75496;SDS011;64074;47.540;19.072;2023-01-01T05:31:06;141.02;;;47.13;;
75496;SDS011;64074;47.540;19.072;2023-01-01T05:34:23;120.63;;;45.72;;
75496;SDS011;64074;47.540;19.072;2023-01-01T05:37:38;103.20;;;42.42;;
75496;SDS011;64074;47.540;19.072;2023-01-01T05:40:50;147.90;;;42.60;;
75496;SDS011;64074;47.540;19.072;2023-01-01T05:44:06;122.87;;;42.73;;
75496;SDS011;64074;47.540;19.072;2023-01-01T05:47:13;119.93;;;42.70;;
75496;SDS011;64074;47.540;19.072;2023-01-01T05:50:34;111.45;;;41.75;;
75496;SDS011;64074;47.540;19.072;2023-01-01T05:53:56;123.22;;;40.47;;
75496;SDS011;64074;47.540;19.072;2023-01-01T05:57:13;85.70;;;37.70;;
75496;SDS011;64074;47.540;19.072;2023-01-01T06:00:43;93.83;;;38.47;;
75496;SDS011;64074;47.540;19.072;2023-01-01T06:04:03;95.50;;;38.35;;
75496;SDS011;64074;47.540;19.072;2023-01-01T06:07:14;98.05;;;37.63;;
75496;SDS011;64074;47.540;19.072;2023-01-01T06:10:31;93.85;;;37.00;;
75496;SDS011;64074;47.540;19.072;2023-01-01T06:13:50;90.97;;;36.27;;
75496;SDS011;64074;47.540;19.072;2023-01-01T06:17:01;99.40;;;37.67;;
75496;SDS011;64074;47.540;19.072;2023-01-01T06:20:35;98.57;;;39.28;;
75496;SDS011;64074;47.540;19.072;2023-01-01T06:23:44;104.50;;;39.85;;
75496;SDS011;64074;47.540;19.072;2023-01-01T06:26:55;101.88;;;41.13;;
75496;SDS011;64074;47.540;19.072;2023-01-01T06:30:16;113.13;;;44.50;;
75496;SDS011;64074;47.540;19.072;2023-01-01T06:33:54;120.20;;;45.50;;
75496;SDS011;64074;47.540;19.072;2023-01-01T06:37:14;114.25;;;45.55;;
75496;SDS011;64074;47.540;19.072;2023-01-01T06:40:38;119.95;;;44.80;;
75496;SDS011;64074;47.540;19.072;2023-01-01T06:43:47;115.45;;;44.75;;
75496;SDS011;64074;47.540;19.072;2023-01-01T06:47:01;136.23;;;46.77;;
75496;SDS011;64074;47.540;19.072;2023-01-01T06:50:41;125.57;;;47.40;;
75496;SDS011;64074;47.540;19.072;2023-01-01T06:53:57;124.10;;;46.30;;
75496;SDS011;64074;47.540;19.072;2023-01-01T06:57:39;136.48;;;49.00;;
75496;SDS011;64074;47.540;19.072;2023-01-01T07:00:53;149.82;;;49.35;;
75496;SDS011;64074;47.540;19.072;2023-01-01T07:04:21;120.37;;;46.57;;
75496;SDS011;64074;47.540;19.072;2023-01-01T07:07:31;120.83;;;41.63;;
75496;SDS011;64074;47.540;19.072;2023-01-01T07:11:00;192.68;;;44.25;;
75496;SDS011;64074;47.540;19.072;2023-01-01T07:14:21;104.60;;;37.65;;
75496;SDS011;64074;47.540;19.072;2023-01-01T07:17:34;88.22;;;34.35;;
75496;SDS011;64074;47.540;19.072;2023-01-01T07:20:54;78.43;;;32.37;;
75496;SDS011;64074;47.540;19.072;2023-01-01T07:24:36;72.77;;;31.47;;
75496;SDS011;64074;47.540;19.072;2023-01-01T07:27:56;76.88;;;31.58;;
75496;SDS011;64074;47.540;19.072;2023-01-01T07:31:06;68.05;;;31.17;;
75496;SDS011;64074;47.540;19.072;2023-01-01T07:34:18;61.15;;;28.95;;
75496;SDS011;64074;47.540;19.072;2023-01-01T07:37:49;69.43;;;30.83;;
75496;SDS011;64074;47.540;19.072;2023-01-01T07:41:03;72.07;;;30.73;;
75496;SDS011;64074;47.540;19.072;2023-01-01T07:44:27;66.97;;;30.45;;
75496;SDS011;64074;47.540;19.072;2023-01-01T07:47:49;61.85;;;29.05;;
75496;SDS011;64074;47.540;19.072;2023-01-01T07:51:36;64.90;;;30.48;;
75496;SDS011;64074;47.540;19.072;2023-01-01T07:54:50;91.60;;;35.07;;
75496;SDS011;64074;47.540;19.072;2023-01-01T07:58:01;69.90;;;31.00;;
75496;SDS011;64074;47.540;19.072;2023-01-01T08:01:08;66.47;;;29.17;;
75496;SDS011;64074;47.540;19.072;2023-01-01T08:04:38;66.45;;;29.92;;
75496;SDS011;64074;47.540;19.072;2023-01-01T08:08:03;72.22;;;31.08;;
75496;SDS011;64074;47.540;19.072;2023-01-01T08:11:17;81.73;;;31.07;;
75496;SDS011;64074;47.540;19.072;2023-01-01T08:14:25;80.40;;;31.57;;
75496;SDS011;64074;47.540;19.072;2023-01-01T08:17:35;75.75;;;31.75;;
75496;SDS011;64074;47.540;19.072;2023-01-01T08:20:54;71.07;;;32.40;;
75496;SDS011;64074;47.540;19.072;2023-01-01T08:24:11;72.82;;;30.25;;
75496;SDS011;64074;47.540;19.072;2023-01-01T08:27:15;72.30;;;29.33;;
75496;SDS011;64074;47.540;19.072;2023-01-01T08:30:39;77.93;;;29.33;;
75496;SDS011;64074;47.540;19.072;2023-01-01T08:33:52;73.35;;;29.88;;
75496;SDS011;64074;47.540;19.072;2023-01-01T08:37:20;77.13;;;29.55;;
75496;SDS011;64074;47.540;19.072;2023-01-01T08:40:28;78.75;;;27.95;;
75496;SDS011;64074;47.540;19.072;2023-01-01T08:43:42;64.63;;;28.50;;
75496;SDS011;64074;47.540;19.072;2023-01-01T08:46:54;75.03;;;28.93;;
75496;SDS011;64074;47.540;19.072;2023-01-01T08:50:04;82.95;;;31.02;;
75496;SDS011;64074;47.540;19.072;2023-01-01T08:53:13;58.97;;;28.70;;
75496;SDS011;64074;47.540;19.072;2023-01-01T08:56:17;70.13;;;26.40;;
75496;SDS011;64074;47.540;19.072;2023-01-01T08:59:27;60.90;;;28.80;;
75496;SDS011;64074;47.540;19.072;2023-01-01T09:02:56;60.60;;;26.60;;
75496;SDS011;64074;47.540;19.072;2023-01-01T09:06:24;65.25;;;27.10;;
75496;SDS011;64074;47.540;19.072;2023-01-01T09:09:53;74.53;;;26.25;;
75496;SDS011;64074;47.540;19.072;2023-01-01T09:13:08;58.00;;;25.20;;
75496;SDS011;64074;47.540;19.072;2023-01-01T09:16:40;59.23;;;26.67;;
75496;SDS011;64074;47.540;19.072;2023-01-01T09:19:54;61.63;;;28.10;;
75496;SDS011;64074;47.540;19.072;2023-01-01T09:23:29;59.72;;;27.08;;
75496;SDS011;64074;47.540;19.072;2023-01-01T09:26:44;64.72;;;26.45;;
75496;SDS011;64074;47.540;19.072;2023-01-01T09:29:55;58.92;;;28.17;;
75496;SDS011;64074;47.540;19.072;2023-01-01T09:33:00;60.37;;;29.43;;
75496;SDS011;64074;47.540;19.072;2023-01-01T09:39:28;53.38;;;27.00;;
75496;SDS011;64074;47.540;19.072;2023-01-01T09:42:48;53.67;;;26.20;;
75496;SDS011;64074;47.540;19.072;2023-01-01T09:46:12;54.63;;;26.80;;
75496;SDS011;64074;47.540;19.072;2023-01-01T09:53:05;47.47;;;24.83;;
75496;SDS011;64074;47.540;19.072;2023-01-01T09:56:23;62.70;;;25.73;;
75496;SDS011;64074;47.540;19.072;2023-01-01T09:59:36;57.05;;;25.00;;
75496;SDS011;64074;47.540;19.072;2023-01-01T10:02:53;49.45;;;24.50;;
75496;SDS011;64074;47.540;19.072;2023-01-01T10:06:21;58.97;;;26.17;;
75496;SDS011;64074;47.540;19.072;2023-01-01T10:13:21;56.10;;;26.85;;
75496;SDS011;64074;47.540;19.072;2023-01-01T10:16:41;56.97;;;27.13;;
75496;SDS011;64074;47.540;19.072;2023-01-01T10:19:56;55.85;;;25.90;;
75496;SDS011;64074;47.540;19.072;2023-01-01T10:23:18;54.27;;;26.37;;
75496;SDS011;64074;47.540;19.072;2023-01-01T10:26:42;51.53;;;25.47;;
75496;SDS011;64074;47.540;19.072;2023-01-01T10:29:59;49.72;;;25.30;;
75496;SDS011;64074;47.540;19.072;2023-01-01T10:33:18;49.53;;;24.65;;
75496;SDS011;64074;47.540;19.072;2023-01-01T10:36:40;48.00;;;23.67;;
75496;SDS011;64074;47.540;19.072;2023-01-01T10:39:59;48.10;;;24.30;;
75496;SDS011;64074;47.540;19.072;2023-01-01T10:43:26;46.77;;;24.40;;
75496;SDS011;64074;47.540;19.072;2023-01-01T10:46:45;49.83;;;24.45;;
75496;SDS011;64074;47.540;19.072;2023-01-01T10:50:07;47.15;;;24.15;;
75496;SDS011;64074;47.540;19.072;2023-01-01T10:53:27;48.22;;;24.85;;
75496;SDS011;64074;47.540;19.072;2023-01-01T10:56:50;50.53;;;24.53;;
75496;SDS011;64074;47.540;19.072;2023-01-01T11:00:19;44.67;;;24.10;;
75496;SDS011;64074;47.540;19.072;2023-01-01T11:03:35;49.33;;;25.20;;
75496;SDS011;64074;47.540;19.072;2023-01-01T11:07:04;52.58;;;26.02;;
75496;SDS011;64074;47.540;19.072;2023-01-01T11:10:20;48.97;;;24.75;;
75496;SDS011;64074;47.540;19.072;2023-01-01T11:13:32;51.87;;;26.40;;
75496;SDS011;64074;47.540;19.072;2023-01-01T11:17:03;42.77;;;23.40;;
75496;SDS011;64074;47.540;19.072;2023-01-01T11:20:26;42.47;;;22.23;;
75496;SDS011;64074;47.540;19.072;2023-01-01T11:23:48;44.00;;;24.10;;
75496;SDS011;64074;47.540;19.072;2023-01-01T11:27:22;42.88;;;23.83;;
75496;SDS011;64074;47.540;19.072;2023-01-01T11:30:34;45.37;;;24.10;;
75496;SDS011;64074;47.540;19.072;2023-01-01T11:33:55;45.43;;;24.47;;
75496;SDS011;64074;47.540;19.072;2023-01-01T11:40:44;44.97;;;23.45;;
75496;SDS011;64074;47.540;19.072;2023-01-01T11:44:01;43.15;;;23.13;;
75496;SDS011;64074;47.540;19.072;2023-01-01T11:47:29;44.73;;;22.87;;
75496;SDS011;64074;47.540;19.072;2023-01-01T11:50:52;46.50;;;23.33;;
75496;SDS011;64074;47.540;19.072;2023-01-01T11:58:11;45.60;;;24.20;;
75496;SDS011;64074;47.540;19.072;2023-01-01T12:01:32;45.75;;;23.00;;
75496;SDS011;64074;47.540;19.072;2023-01-01T12:04:49;43.33;;;22.63;;
75496;SDS011;64074;47.540;19.072;2023-01-01T12:08:08;41.90;;;22.73;;
75496;SDS011;64074;47.540;19.072;2023-01-01T12:11:56;45.03;;;23.27;;
75496;SDS011;64074;47.540;19.072;2023-01-01T12:19:42;40.72;;;21.92;;
75496;SDS011;64074;47.540;19.072;2023-01-01T12:23:12;39.57;;;20.37;;
75496;SDS011;64074;47.540;19.072;2023-01-01T12:26:48;41.67;;;22.07;;
75496;SDS011;64074;47.540;19.072;2023-01-01T12:30:22;42.58;;;20.38;;
75496;SDS011;64074;47.540;19.072;2023-01-01T12:33:52;42.58;;;20.95;;
75496;SDS011;64074;47.540;19.072;2023-01-01T12:41:33;44.17;;;22.17;;
75496;SDS011;64074;47.540;19.072;2023-01-01T12:45:03;41.53;;;21.73;;
75496;SDS011;64074;47.540;19.072;2023-01-01T12:52:08;45.35;;;23.88;;
75496;SDS011;64074;47.540;19.072;2023-01-01T12:59:10;42.33;;;22.50;;
75496;SDS011;64074;47.540;19.072;2023-01-01T13:02:32;44.10;;;22.77;;
75496;SDS011;64074;47.540;19.072;2023-01-01T13:05:48;40.10;;;21.70;;
75496;SDS011;64074;47.540;19.072;2023-01-01T13:08:56;42.30;;;21.30;;
75496;SDS011;64074;47.540;19.072;2023-01-01T13:12:13;42.22;;;21.35;;
75496;SDS011;64074;47.540;19.072;2023-01-01T13:18:51;41.57;;;21.17;;
75496;SDS011;64074;47.540;19.072;2023-01-01T13:25:34;40.85;;;20.70;;
75496;SDS011;64074;47.540;19.072;2023-01-01T13:32:14;38.03;;;19.73;;
75496;SDS011;64074;47.540;19.072;2023-01-01T13:35:25;39.70;;;19.50;;
75496;SDS011;64074;47.540;19.072;2023-01-01T13:38:48;36.95;;;19.05;;
75496;SDS011;64074;47.540;19.072;2023-01-01T13:45:45;38.88;;;19.92;;
75496;SDS011;64074;47.540;19.072;2023-01-01T13:49:22;41.13;;;20.03;;
75496;SDS011;64074;47.540;19.072;2023-01-01T13:53:14;38.90;;;19.83;;
75496;SDS011;64074;47.540;19.072;2023-01-01T14:00:43;41.83;;;20.33;;
75496;SDS011;64074;47.540;19.072;2023-01-01T14:04:05;43.60;;;21.30;;
75496;SDS011;64074;47.540;19.072;2023-01-01T14:07:45;46.43;;;21.90;;
75496;SDS011;64074;47.540;19.072;2023-01-01T14:10:57;47.47;;;22.07;;
75496;SDS011;64074;47.540;19.072;2023-01-01T14:14:23;45.17;;;22.13;;
75496;SDS011;64074;47.540;19.072;2023-01-01T14:17:39;47.90;;;21.92;;
75496;SDS011;64074;47.540;19.072;2023-01-01T14:21:10;45.53;;;22.90;;
75496;SDS011;64074;47.540;19.072;2023-01-01T14:24:27;48.20;;;23.50;;
75496;SDS011;64074;47.540;19.072;2023-01-01T14:27:41;48.50;;;24.80;;
75496;SDS011;64074;47.540;19.072;2023-01-01T14:31:03;47.33;;;24.63;;
75496;SDS011;64074;47.540;19.072;2023-01-01T14:34:29;47.75;;;22.98;;
75496;SDS011;64074;47.540;19.072;2023-01-01T14:37:52;44.67;;;22.73;;
75496;SDS011;64074;47.540;19.072;2023-01-01T14:41:28;42.70;;;22.27;;
75496;SDS011;64074;47.540;19.072;2023-01-01T14:44:43;43.27;;;22.43;;
75496;SDS011;64074;47.540;19.072;2023-01-01T14:48:01;46.08;;;23.70;;
75496;SDS011;64074;47.540;19.072;2023-01-01T14:51:26;47.03;;;22.30;;
75496;SDS011;64074;47.540;19.072;2023-01-01T14:54:52;40.15;;;21.35;;
75496;SDS011;64074;47.540;19.072;2023-01-01T14:58:10;46.70;;;21.83;;
75496;SDS011;64074;47.540;19.072;2023-01-01T15:01:30;46.00;;;22.50;;
75496;SDS011;64074;47.540;19.072;2023-01-01T15:04:52;45.30;;;22.00;;
75496;SDS011;64074;47.540;19.072;2023-01-01T15:08:03;45.28;;;21.67;;
75496;SDS011;64074;47.540;19.072;2023-01-01T15:11:33;48.50;;;25.45;;
75496;SDS011;64074;47.540;19.072;2023-01-01T15:14:56;53.23;;;27.80;;
75496;SDS011;64074;47.540;19.072;2023-01-01T15:18:22;49.67;;;26.47;;
75496;SDS011;64074;47.540;19.072;2023-01-01T15:21:53;47.20;;;22.38;;
75496;SDS011;64074;47.540;19.072;2023-01-01T15:25:03;42.38;;;21.63;;
75496;SDS011;64074;47.540;19.072;2023-01-01T15:28:26;41.03;;;22.02;;
75496;SDS011;64074;47.540;19.072;2023-01-01T15:31:49;47.13;;;25.03;;
75496;SDS011;64074;47.540;19.072;2023-01-01T15:35:21;50.57;;;25.83;;
75496;SDS011;64074;47.540;19.072;2023-01-01T15:38:40;48.90;;;23.90;;
75496;SDS011;64074;47.540;19.072;2023-01-01T15:41:57;48.38;;;23.30;;
75496;SDS011;64074;47.540;19.072;2023-01-01T15:45:20;45.88;;;22.60;;
75496;SDS011;64074;47.540;19.072;2023-01-01T15:48:46;44.33;;;23.63;;
75496;SDS011;64074;47.540;19.072;2023-01-01T15:51:59;50.07;;;25.20;;
75496;SDS011;64074;47.540;19.072;2023-01-01T15:55:11;65.00;;;32.17;;
75496;SDS011;64074;47.540;19.072;2023-01-01T15:58:22;73.22;;;39.38;;
75496;SDS011;64074;47.540;19.072;2023-01-01T16:01:36;57.67;;;28.75;;
75496;SDS011;64074;47.540;19.072;2023-01-01T16:04:50;56.80;;;27.83;;
75496;SDS011;64074;47.540;19.072;2023-01-01T16:08:01;52.80;;;25.77;;
75496;SDS011;64074;47.540;19.072;2023-01-01T16:11:07;53.83;;;26.88;;
75496;SDS011;64074;47.540;19.072;2023-01-01T16:14:22;53.72;;;26.25;;
75496;SDS011;64074;47.540;19.072;2023-01-01T16:17:29;45.58;;;23.42;;
75496;SDS011;64074;47.540;19.072;2023-01-01T16:20:40;58.40;;;27.70;;
75496;SDS011;64074;47.540;19.072;2023-01-01T16:23:54;50.90;;;26.17;;
75496;SDS011;64074;47.540;19.072;2023-01-01T16:26:57;50.70;;;24.55;;
75496;SDS011;64074;47.540;19.072;2023-01-01T16:30:10;72.03;;;30.92;;
75496;SDS011;64074;47.540;19.072;2023-01-01T16:33:17;62.33;;;29.27;;
75496;SDS011;64074;47.540;19.072;2023-01-01T16:36:26;55.37;;;25.80;;
75496;SDS011;64074;47.540;19.072;2023-01-01T16:39:34;104.53;;;38.57;;
75496;SDS011;64074;47.540;19.072;2023-01-01T16:42:41;89.82;;;38.05;;
75496;SDS011;64074;47.540;19.072;2023-01-01T16:45:51;55.58;;;28.75;;
75496;SDS011;64074;47.540;19.072;2023-01-01T16:49:21;59.47;;;31.67;;
75496;SDS011;64074;47.540;19.072;2023-01-01T16:52:24;55.83;;;27.93;;
75496;SDS011;64074;47.540;19.072;2023-01-01T16:55:35;51.87;;;25.73;;
75496;SDS011;64074;47.540;19.072;2023-01-01T16:58:46;50.55;;;26.00;;
75496;SDS011;64074;47.540;19.072;2023-01-01T17:02:11;48.92;;;25.33;;
75496;SDS011;64074;47.540;19.072;2023-01-01T17:05:21;51.35;;;26.52;;
75496;SDS011;64074;47.540;19.072;2023-01-01T17:08:53;47.23;;;25.87;;
75496;SDS011;64074;47.540;19.072;2023-01-01T17:12:10;52.43;;;28.57;;
75496;SDS011;64074;47.540;19.072;2023-01-01T17:15:32;47.70;;;25.67;;
75496;SDS011;64074;47.540;19.072;2023-01-01T17:18:50;46.13;;;25.48;;
75496;SDS011;64074;47.540;19.072;2023-01-01T17:22:27;47.65;;;26.08;;
75496;SDS011;64074;47.540;19.072;2023-01-01T17:25:45;45.97;;;25.03;;
75496;SDS011;64074;47.540;19.072;2023-01-01T17:28:54;46.30;;;24.67;;
75496;SDS011;64074;47.540;19.072;2023-01-01T17:32:22;44.58;;;24.00;;
75496;SDS011;64074;47.540;19.072;2023-01-01T17:35:57;44.40;;;23.75;;
75496;SDS011;64074;47.540;19.072;2023-01-01T17:43:14;43.97;;;24.73;;
75496;SDS011;64074;47.540;19.072;2023-01-01T17:46:25;46.37;;;24.87;;
75496;SDS011;64074;47.540;19.072;2023-01-01T17:49:37;48.17;;;26.63;;
75496;SDS011;64074;47.540;19.072;2023-01-01T17:52:43;49.38;;;25.50;;
75496;SDS011;64074;47.540;19.072;2023-01-01T17:55:58;50.47;;;27.73;;
75496;SDS011;64074;47.540;19.072;2023-01-01T17:59:40;51.30;;;27.23;;
75496;SDS011;64074;47.540;19.072;2023-01-01T18:02:50;45.93;;;25.03;;
75496;SDS011;64074;47.540;19.072;2023-01-01T18:06:01;48.55;;;26.85;;
75496;SDS011;64074;47.540;19.072;2023-01-01T18:09:56;50.28;;;27.00;;
75496;SDS011;64074;47.540;19.072;2023-01-01T18:13:10;47.20;;;25.73;;
75496;SDS011;64074;47.540;19.072;2023-01-01T18:16:15;50.20;;;26.37;;
75496;SDS011;64074;47.540;19.072;2023-01-01T18:23:53;48.40;;;25.27;;
75496;SDS011;64074;47.540;19.072;2023-01-01T18:27:36;48.00;;;25.73;;
75496;SDS011;64074;47.540;19.072;2023-01-01T18:31:08;48.60;;;25.38;;
75496;SDS011;64074;47.540;19.072;2023-01-01T18:34:54;48.17;;;24.83;;
75496;SDS011;64074;47.540;19.072;2023-01-01T18:38:11;46.10;;;25.23;;
75496;SDS011;64074;47.540;19.072;2023-01-01T18:45:34;43.83;;;23.88;;
75496;SDS011;64074;47.540;19.072;2023-01-01T18:48:45;52.45;;;28.73;;
75496;SDS011;64074;47.540;19.072;2023-01-01T18:55:17;48.13;;;25.73;;
75496;SDS011;64074;47.540;19.072;2023-01-01T18:58:27;48.22;;;27.17;;
75496;SDS011;64074;47.540;19.072;2023-01-01T19:01:41;49.95;;;26.58;;
75496;SDS011;64074;47.540;19.072;2023-01-01T19:05:04;48.03;;;26.17;;
75496;SDS011;64074;47.540;19.072;2023-01-01T19:08:25;50.93;;;26.27;;
75496;SDS011;64074;47.540;19.072;2023-01-01T19:11:47;51.50;;;25.77;;
75496;SDS011;64074;47.540;19.072;2023-01-01T19:15:17;48.92;;;26.23;;
75496;SDS011;64074;47.540;19.072;2023-01-01T19:18:42;47.63;;;25.33;;
75496;SDS011;64074;47.540;19.072;2023-01-01T19:22:00;52.47;;;26.17;;
75496;SDS011;64074;47.540;19.072;2023-01-01T19:25:38;49.20;;;27.40;;
75496;SDS011;64074;47.540;19.072;2023-01-01T19:29:07;49.53;;;26.73;;
75496;SDS011;64074;47.540;19.072;2023-01-01T19:32:53;46.25;;;25.95;;
75496;SDS011;64074;47.540;19.072;2023-01-01T19:36:31;48.50;;;26.70;;
75496;SDS011;64074;47.540;19.072;2023-01-01T19:39:47;47.75;;;25.65;;
75496;SDS011;64074;47.540;19.072;2023-01-01T19:43:44;47.77;;;25.73;;
75496;SDS011;64074;47.540;19.072;2023-01-01T19:47:37;45.17;;;25.80;;
75496;SDS011;64074;47.540;19.072;2023-01-01T19:51:13;47.53;;;25.85;;
75496;SDS011;64074;47.540;19.072;2023-01-01T19:55:44;48.83;;;25.67;;
75496;SDS011;64074;47.540;19.072;2023-01-01T20:03:53;48.67;;;25.77;;
75496;SDS011;64074;47.540;19.072;2023-01-01T20:07:16;50.27;;;27.07;;
75496;SDS011;64074;47.540;19.072;2023-01-01T20:10:29;48.00;;;25.92;;
75496;SDS011;64074;47.540;19.072;2023-01-01T20:13:42;55.55;;;27.67;;
75496;SDS011;64074;47.540;19.072;2023-01-01T20:17:03;47.47;;;25.67;;
75496;SDS011;64074;47.540;19.072;2023-01-01T20:20:21;51.43;;;28.10;;
75496;SDS011;64074;47.540;19.072;2023-01-01T20:23:41;49.57;;;27.50;;
75496;SDS011;64074;47.540;19.072;2023-01-01T20:27:20;50.08;;;26.52;;
75496;SDS011;64074;47.540;19.072;2023-01-01T20:30:49;46.40;;;24.85;;
75496;SDS011;64074;47.540;19.072;2023-01-01T20:33:58;50.72;;;25.55;;
75496;SDS011;64074;47.540;19.072;2023-01-01T20:37:14;50.67;;;26.27;;
75496;SDS011;64074;47.540;19.072;2023-01-01T20:42:04;46.40;;;23.97;;